Please be sure to check the latest weather conditions by clicking the link and viewing our local weather information!

Check Weather

Welcome to Lakeway Airpark (3R9)

FromTheAir

We’re a community airpark nestled within the town of Lakeway, Texas (17 miles northwest of downtown Austin).

Lakeway Airpark, Inc. was formed by Lakeway residents and interested parties to own and manage Lakeway Airpark (3R9).

The Airpark is a privately owned not for profit public use airport for residents and guests of Lakeway. No public funds are used and the airport is supported by fees and fuel sales at the airport.

Lakeway Airpark is an unmanned facility open for use from Sunrise to Sunset seven days a week. Takeoffs and landings are not permitted at night, between Sunset and Sunrise, by City Ordinance.

Quick Weather Info

Available data for KAUS from the past 2 hours

metar

  • KAUS 270006Z 07012KT 10SM -RA BKN008 OVC023 23/22 A2977 RMK AO2 TSE03 OCNL LTG DSNT NE TS MOV NE P0000 T02330222
  • KAUS 262353Z 07010KT 9SM -TSRA SCT009 BKN021CB OVC050 23/22 A2977 RMK AO2 RAB29 TSE07B32 SLP071 OCNL LTGICCC E TS E MOV NE P0006 60006 T02330222 10311 20233 53001
  • KAUS 262333Z 06013G20KT 5SM R17L/5000VP6000FT -TSRA BR FEW010 BKN023CB OVC050 24/22 A2977 RMK AO2 RAB29 TSE07B32 OCNL LTGICCC E TS E MOV NE P0003 T02390222
  • KAUS 262313Z 07013KT 10SM SCT018 BKN025 BKN035 25/22 A2975 RMK AO2 TSE07 OCNL LTG DSNT NE TS MOV NE T02500217
  • KAUS 262253Z 06013KT 10SM TS BKN020CB BKN026 BKN075 25/22 A2974 RMK AO2 PK WND 05027/2228 RAB19E27 TSB27 SLP062 OCNL LTGICCCCG NE-E TS NE-E MOV NE P0000 T02500217
  • KAUS 262237Z 06015G27KT 10SM TS BKN020CB BKN026 BKN075 25/22 A2975 RMK AO2 PK WND 05027/2228 RAB19E27 TSB27 OCNL LTGICCCCG NE-E TS NE-E MOV NE P0000 T02500217
  • KAUS 262227Z 04021G26KT 10SM TS SCT018CB BKN030 BKN200 25/22 A2975 RMK AO2 PK WND 05026/2227 RAB19E27 TSB27 OCNL LTGICCCCG NE-E TS NE-E MOV NE P0000 T02500217

taf

  • KAUS 262350Z 2700/2806 07013KT P6SM VCTS SCT020CB BKN030 BKN200 TEMPO 2700/2702 VRB15G25KT 3SM TSRA BR OVC015CB FM270600 15015KT P6SM VCSH OVC015 FM271000 17012KT P6SM OVC007 FM271500 18011KT P6SM OVC015 FM272000 15014KT P6SM BKN025 BKN040 PROB30 2721/2802 VRB25G35KT 3SM TSRA OVC020CB